sensor_id;sensor_type;location;lat;lon;timestamp;P1;durP1;ratioP1;P2;durP2;ratioP2
36303;SDS011;22335;49.800;8.596;2023-08-31T00:03:11;8.05;;;7.32;;
36303;SDS011;22335;49.800;8.596;2023-08-31T00:09:57;8.07;;;7.30;;
36303;SDS011;22335;49.800;8.596;2023-08-31T00:16:41;7.95;;;7.25;;
36303;SDS011;22335;49.800;8.596;2023-08-31T00:23:27;9.15;;;8.55;;
36303;SDS011;22335;49.800;8.596;2023-08-31T00:30:12;9.55;;;7.63;;
36303;SDS011;22335;49.800;8.596;2023-08-31T00:36:56;8.43;;;7.82;;
36303;SDS011;22335;49.800;8.596;2023-08-31T00:43:40;8.65;;;7.85;;
36303;SDS011;22335;49.800;8.596;2023-08-31T00:50:26;8.27;;;7.30;;
36303;SDS011;22335;49.800;8.596;2023-08-31T01:03:54;7.95;;;7.38;;
36303;SDS011;22335;49.800;8.596;2023-08-31T01:10:55;8.02;;;7.07;;
36303;SDS011;22335;49.800;8.596;2023-08-31T01:17:47;9.88;;;9.00;;
36303;SDS011;22335;49.800;8.596;2023-08-31T01:31:18;8.82;;;8.13;;
36303;SDS011;22335;49.800;8.596;2023-08-31T01:38:02;8.82;;;7.93;;
36303;SDS011;22335;49.800;8.596;2023-08-31T01:44:52;8.32;;;7.70;;
36303;SDS011;22335;49.800;8.596;2023-08-31T01:51:39;9.93;;;8.88;;
36303;SDS011;22335;49.800;8.596;2023-08-31T01:58:22;10.52;;;7.95;;
36303;SDS011;22335;49.800;8.596;2023-08-31T02:05:08;8.82;;;8.13;;
36303;SDS011;22335;49.800;8.596;2023-08-31T02:11:52;8.65;;;7.80;;
36303;SDS011;22335;49.800;8.596;2023-08-31T02:18:35;8.40;;;7.80;;
36303;SDS011;22335;49.800;8.596;2023-08-31T02:25:20;10.02;;;9.07;;
36303;SDS011;22335;49.800;8.596;2023-08-31T02:32:04;10.15;;;8.65;;
36303;SDS011;22335;49.800;8.596;2023-08-31T02:38:48;10.18;;;9.30;;
36303;SDS011;22335;49.800;8.596;2023-08-31T02:45:33;9.70;;;8.90;;
36303;SDS011;22335;49.800;8.596;2023-08-31T02:52:17;10.55;;;9.57;;
36303;SDS011;22335;49.800;8.596;2023-08-31T02:59:00;11.07;;;9.98;;
36303;SDS011;22335;49.800;8.596;2023-08-31T03:05:46;10.73;;;9.73;;
36303;SDS011;22335;49.800;8.596;2023-08-31T03:12:29;12.43;;;10.43;;
36303;SDS011;22335;49.800;8.596;2023-08-31T03:19:13;11.02;;;9.95;;
36303;SDS011;22335;49.800;8.596;2023-08-31T03:25:59;14.23;;;9.88;;
36303;SDS011;22335;49.800;8.596;2023-08-31T03:32:48;12.43;;;11.13;;
36303;SDS011;22335;49.800;8.596;2023-08-31T03:39:32;11.57;;;10.48;;
36303;SDS011;22335;49.800;8.596;2023-08-31T03:46:17;12.52;;;10.77;;
36303;SDS011;22335;49.800;8.596;2023-08-31T03:53:01;12.40;;;10.20;;
36303;SDS011;22335;49.800;8.596;2023-08-31T03:59:44;10.82;;;9.68;;
36303;SDS011;22335;49.800;8.596;2023-08-31T04:13:14;12.13;;;10.40;;
36303;SDS011;22335;49.800;8.596;2023-08-31T04:19:57;11.68;;;10.65;;
36303;SDS011;22335;49.800;8.596;2023-08-31T04:26:42;11.40;;;10.27;;
36303;SDS011;22335;49.800;8.596;2023-08-31T04:33:26;10.93;;;9.87;;
36303;SDS011;22335;49.800;8.596;2023-08-31T04:40:10;10.80;;;9.13;;
36303;SDS011;22335;49.800;8.596;2023-08-31T04:46:56;10.43;;;9.43;;
36303;SDS011;22335;49.800;8.596;2023-08-31T04:53:39;10.25;;;9.25;;
36303;SDS011;22335;49.800;8.596;2023-08-31T05:00:22;11.15;;;9.82;;
36303;SDS011;22335;49.800;8.596;2023-08-31T05:07:07;12.00;;;10.02;;
36303;SDS011;22335;49.800;8.596;2023-08-31T05:13:51;10.88;;;9.80;;
36303;SDS011;22335;49.800;8.596;2023-08-31T05:20:34;10.95;;;9.88;;
36303;SDS011;22335;49.800;8.596;2023-08-31T05:27:19;10.65;;;9.55;;
36303;SDS011;22335;49.800;8.596;2023-08-31T05:34:03;11.00;;;9.88;;
36303;SDS011;22335;49.800;8.596;2023-08-31T05:40:46;14.18;;;9.93;;
36303;SDS011;22335;49.800;8.596;2023-08-31T05:47:31;11.52;;;10.25;;
36303;SDS011;22335;49.800;8.596;2023-08-31T05:54:16;11.63;;;10.52;;
36303;SDS011;22335;49.800;8.596;2023-08-31T06:01:00;11.27;;;10.30;;
36303;SDS011;22335;49.800;8.596;2023-08-31T06:07:45;10.35;;;9.35;;
36303;SDS011;22335;49.800;8.596;2023-08-31T06:14:28;10.60;;;9.82;;
36303;SDS011;22335;49.800;8.596;2023-08-31T06:21:12;10.65;;;9.65;;
36303;SDS011;22335;49.800;8.596;2023-08-31T06:27:57;10.57;;;9.50;;
36303;SDS011;22335;49.800;8.596;2023-08-31T06:34:41;10.38;;;9.45;;
36303;SDS011;22335;49.800;8.596;2023-08-31T06:41:24;9.43;;;8.52;;
36303;SDS011;22335;49.800;8.596;2023-08-31T06:48:09;10.77;;;8.68;;
36303;SDS011;22335;49.800;8.596;2023-08-31T06:54:52;8.93;;;8.10;;
36303;SDS011;22335;49.800;8.596;2023-08-31T07:01:37;9.50;;;8.70;;
36303;SDS011;22335;49.800;8.596;2023-08-31T07:08:22;9.63;;;8.65;;
36303;SDS011;22335;49.800;8.596;2023-08-31T07:15:06;10.88;;;8.30;;
36303;SDS011;22335;49.800;8.596;2023-08-31T07:21:50;8.75;;;7.90;;
36303;SDS011;22335;49.800;8.596;2023-08-31T07:28:37;9.40;;;7.93;;
36303;SDS011;22335;49.800;8.596;2023-08-31T07:35:21;9.25;;;8.27;;
36303;SDS011;22335;49.800;8.596;2023-08-31T07:42:05;9.85;;;7.38;;
36303;SDS011;22335;49.800;8.596;2023-08-31T07:48:50;9.00;;;7.40;;
36303;SDS011;22335;49.800;8.596;2023-08-31T07:55:34;8.27;;;7.47;;
36303;SDS011;22335;49.800;8.596;2023-08-31T08:02:18;10.05;;;6.38;;
36303;SDS011;22335;49.800;8.596;2023-08-31T08:09:03;10.65;;;6.93;;
36303;SDS011;22335;49.800;8.596;2023-08-31T08:15:47;8.15;;;6.93;;
36303;SDS011;22335;49.800;8.596;2023-08-31T08:22:31;10.75;;;6.95;;
36303;SDS011;22335;49.800;8.596;2023-08-31T08:29:16;9.45;;;6.68;;
36303;SDS011;22335;49.800;8.596;2023-08-31T08:36:00;8.45;;;6.55;;
36303;SDS011;22335;49.800;8.596;2023-08-31T08:42:44;6.95;;;6.35;;
36303;SDS011;22335;49.800;8.596;2023-08-31T08:49:31;7.43;;;6.68;;
36303;SDS011;22335;49.800;8.596;2023-08-31T08:56:17;7.72;;;6.93;;
36303;SDS011;22335;49.800;8.596;2023-08-31T09:03:01;8.95;;;7.18;;
36303;SDS011;22335;49.800;8.596;2023-08-31T09:09:49;7.10;;;6.50;;
36303;SDS011;22335;49.800;8.596;2023-08-31T09:16:34;7.22;;;6.55;;
36303;SDS011;22335;49.800;8.596;2023-08-31T09:23:18;7.93;;;7.22;;
36303;SDS011;22335;49.800;8.596;2023-08-31T09:30:05;7.10;;;6.33;;
36303;SDS011;22335;49.800;8.596;2023-08-31T09:36:50;9.63;;;6.93;;
36303;SDS011;22335;49.800;8.596;2023-08-31T09:43:34;8.05;;;6.25;;
36303;SDS011;22335;49.800;8.596;2023-08-31T09:50:19;7.18;;;6.50;;
36303;SDS011;22335;49.800;8.596;2023-08-31T09:57:05;7.57;;;6.88;;
36303;SDS011;22335;49.800;8.596;2023-08-31T10:03:49;8.23;;;7.30;;
36303;SDS011;22335;49.800;8.596;2023-08-31T10:10:34;6.50;;;5.90;;
36303;SDS011;22335;49.800;8.596;2023-08-31T10:17:19;6.07;;;5.65;;
36303;SDS011;22335;49.800;8.596;2023-08-31T10:24:04;6.50;;;5.97;;
36303;SDS011;22335;49.800;8.596;2023-08-31T10:31:01;6.18;;;5.68;;
36303;SDS011;22335;49.800;8.596;2023-08-31T10:37:46;6.88;;;6.20;;
36303;SDS011;22335;49.800;8.596;2023-08-31T10:44:30;8.20;;;6.28;;
36303;SDS011;22335;49.800;8.596;2023-08-31T10:51:17;6.15;;;5.65;;
36303;SDS011;22335;49.800;8.596;2023-08-31T10:58:09;7.00;;;6.32;;
36303;SDS011;22335;49.800;8.596;2023-08-31T11:04:53;6.88;;;5.90;;
36303;SDS011;22335;49.800;8.596;2023-08-31T11:11:41;7.07;;;6.38;;
36303;SDS011;22335;49.800;8.596;2023-08-31T11:18:24;6.82;;;6.22;;
36303;SDS011;22335;49.800;8.596;2023-08-31T11:25:09;7.15;;;6.38;;
36303;SDS011;22335;49.800;8.596;2023-08-31T11:31:57;5.95;;;5.20;;
36303;SDS011;22335;49.800;8.596;2023-08-31T11:38:41;8.35;;;5.80;;
36303;SDS011;22335;49.800;8.596;2023-08-31T11:45:24;5.88;;;5.32;;
36303;SDS011;22335;49.800;8.596;2023-08-31T11:52:10;6.30;;;5.72;;
36303;SDS011;22335;49.800;8.596;2023-08-31T11:58:55;6.07;;;5.50;;
36303;SDS011;22335;49.800;8.596;2023-08-31T12:05:45;5.57;;;5.20;;
36303;SDS011;22335;49.800;8.596;2023-08-31T12:12:31;8.97;;;6.27;;
36303;SDS011;22335;49.800;8.596;2023-08-31T12:19:16;6.25;;;5.80;;
36303;SDS011;22335;49.800;8.596;2023-08-31T12:26:00;6.30;;;5.80;;
36303;SDS011;22335;49.800;8.596;2023-08-31T12:32:46;6.40;;;5.80;;
36303;SDS011;22335;49.800;8.596;2023-08-31T12:39:30;6.55;;;5.95;;
36303;SDS011;22335;49.800;8.596;2023-08-31T12:46:14;7.10;;;6.22;;
36303;SDS011;22335;49.800;8.596;2023-08-31T12:52:59;6.72;;;5.90;;
36303;SDS011;22335;49.800;8.596;2023-08-31T12:59:43;7.13;;;6.43;;
36303;SDS011;22335;49.800;8.596;2023-08-31T13:06:27;11.18;;;6.82;;
36303;SDS011;22335;49.800;8.596;2023-08-31T13:13:11;8.05;;;6.78;;
36303;SDS011;22335;49.800;8.596;2023-08-31T13:19:55;10.13;;;7.23;;
36303;SDS011;22335;49.800;8.596;2023-08-31T13:26:40;7.15;;;6.50;;
36303;SDS011;22335;49.800;8.596;2023-08-31T13:33:30;7.60;;;6.90;;
36303;SDS011;22335;49.800;8.596;2023-08-31T13:46:58;8.10;;;6.47;;
36303;SDS011;22335;49.800;8.596;2023-08-31T13:53:45;7.10;;;6.47;;
36303;SDS011;22335;49.800;8.596;2023-08-31T14:00:29;7.40;;;6.65;;
36303;SDS011;22335;49.800;8.596;2023-08-31T14:07:13;9.48;;;6.40;;
36303;SDS011;22335;49.800;8.596;2023-08-31T14:14:02;7.00;;;6.25;;
36303;SDS011;22335;49.800;8.596;2023-08-31T14:20:50;7.68;;;6.05;;
36303;SDS011;22335;49.800;8.596;2023-08-31T14:27:34;9.30;;;6.80;;
36303;SDS011;22335;49.800;8.596;2023-08-31T14:34:18;8.25;;;7.20;;
36303;SDS011;22335;49.800;8.596;2023-08-31T14:41:02;9.30;;;6.93;;
36303;SDS011;22335;49.800;8.596;2023-08-31T14:47:47;7.45;;;6.63;;
36303;SDS011;22335;49.800;8.596;2023-08-31T14:54:32;7.40;;;6.68;;
36303;SDS011;22335;49.800;8.596;2023-08-31T15:01:16;6.93;;;6.25;;
36303;SDS011;22335;49.800;8.596;2023-08-31T15:08:00;7.65;;;6.55;;
36303;SDS011;22335;49.800;8.596;2023-08-31T15:14:47;7.88;;;6.00;;
36303;SDS011;22335;49.800;8.596;2023-08-31T15:21:30;7.63;;;6.60;;
36303;SDS011;22335;49.800;8.596;2023-08-31T15:28:14;7.22;;;6.53;;
36303;SDS011;22335;49.800;8.596;2023-08-31T15:34:59;8.18;;;6.57;;
36303;SDS011;22335;49.800;8.596;2023-08-31T15:41:42;7.50;;;6.90;;
36303;SDS011;22335;49.800;8.596;2023-08-31T15:48:26;11.07;;;6.63;;
36303;SDS011;22335;49.800;8.596;2023-08-31T15:55:11;9.32;;;6.50;;
36303;SDS011;22335;49.800;8.596;2023-08-31T16:01:55;8.37;;;7.57;;
36303;SDS011;22335;49.800;8.596;2023-08-31T16:08:38;10.35;;;6.88;;
36303;SDS011;22335;49.800;8.596;2023-08-31T16:15:23;7.18;;;6.47;;
36303;SDS011;22335;49.800;8.596;2023-08-31T16:22:08;8.70;;;6.50;;
36303;SDS011;22335;49.800;8.596;2023-08-31T16:28:51;7.78;;;5.85;;
36303;SDS011;22335;49.800;8.596;2023-08-31T16:35:37;8.90;;;6.70;;
36303;SDS011;22335;49.800;8.596;2023-08-31T16:42:20;7.50;;;6.37;;
36303;SDS011;22335;49.800;8.596;2023-08-31T16:49:04;7.10;;;6.40;;
36303;SDS011;22335;49.800;8.596;2023-08-31T16:55:48;9.60;;;6.47;;
36303;SDS011;22335;49.800;8.596;2023-08-31T17:02:32;8.35;;;6.72;;
36303;SDS011;22335;49.800;8.596;2023-08-31T17:09:15;7.13;;;6.40;;
36303;SDS011;22335;49.800;8.596;2023-08-31T17:16:00;10.80;;;6.68;;
36303;SDS011;22335;49.800;8.596;2023-08-31T17:22:46;7.28;;;6.40;;
36303;SDS011;22335;49.800;8.596;2023-08-31T17:29:29;9.00;;;6.63;;
36303;SDS011;22335;49.800;8.596;2023-08-31T17:36:14;10.82;;;7.28;;
36303;SDS011;22335;49.800;8.596;2023-08-31T17:42:58;7.78;;;7.00;;
36303;SDS011;22335;49.800;8.596;2023-08-31T17:49:42;9.32;;;7.07;;
36303;SDS011;22335;49.800;8.596;2023-08-31T17:56:27;8.82;;;6.85;;
36303;SDS011;22335;49.800;8.596;2023-08-31T18:03:12;10.23;;;6.57;;
36303;SDS011;22335;49.800;8.596;2023-08-31T18:09:55;7.45;;;6.68;;
36303;SDS011;22335;49.800;8.596;2023-08-31T18:16:40;8.70;;;6.85;;
36303;SDS011;22335;49.800;8.596;2023-08-31T18:23:23;10.10;;;7.35;;
36303;SDS011;22335;49.800;8.596;2023-08-31T18:30:09;8.02;;;7.25;;
36303;SDS011;22335;49.800;8.596;2023-08-31T18:36:56;8.23;;;6.32;;
36303;SDS011;22335;49.800;8.596;2023-08-31T18:43:39;9.03;;;7.17;;
36303;SDS011;22335;49.800;8.596;2023-08-31T18:50:25;9.47;;;7.40;;
36303;SDS011;22335;49.800;8.596;2023-08-31T18:57:09;7.93;;;7.13;;
36303;SDS011;22335;49.800;8.596;2023-08-31T19:03:53;7.20;;;6.50;;
36303;SDS011;22335;49.800;8.596;2023-08-31T19:10:38;7.43;;;6.70;;
36303;SDS011;22335;49.800;8.596;2023-08-31T19:17:22;9.45;;;7.22;;
36303;SDS011;22335;49.800;8.596;2023-08-31T19:24:06;8.57;;;7.65;;
36303;SDS011;22335;49.800;8.596;2023-08-31T19:30:50;7.93;;;7.05;;
36303;SDS011;22335;49.800;8.596;2023-08-31T19:37:36;8.43;;;7.18;;
36303;SDS011;22335;49.800;8.596;2023-08-31T19:44:21;10.20;;;6.90;;
36303;SDS011;22335;49.800;8.596;2023-08-31T19:51:06;7.50;;;6.57;;
36303;SDS011;22335;49.800;8.596;2023-08-31T19:57:52;7.40;;;6.70;;
36303;SDS011;22335;49.800;8.596;2023-08-31T20:04:35;7.93;;;7.22;;
36303;SDS011;22335;49.800;8.596;2023-08-31T20:11:20;9.75;;;7.97;;
36303;SDS011;22335;49.800;8.596;2023-08-31T20:18:05;11.50;;;8.38;;
36303;SDS011;22335;49.800;8.596;2023-08-31T20:24:49;8.55;;;7.75;;
36303;SDS011;22335;49.800;8.596;2023-08-31T20:31:32;10.50;;;8.48;;
36303;SDS011;22335;49.800;8.596;2023-08-31T20:38:18;10.25;;;9.02;;
36303;SDS011;22335;49.800;8.596;2023-08-31T20:45:02;9.68;;;8.68;;
36303;SDS011;22335;49.800;8.596;2023-08-31T20:51:46;12.65;;;8.73;;
36303;SDS011;22335;49.800;8.596;2023-08-31T20:58:31;11.68;;;10.00;;
36303;SDS011;22335;49.800;8.596;2023-08-31T21:05:15;12.15;;;10.35;;
36303;SDS011;22335;49.800;8.596;2023-08-31T21:11:58;9.32;;;8.45;;
36303;SDS011;22335;49.800;8.596;2023-08-31T21:18:44;10.57;;;9.18;;
36303;SDS011;22335;49.800;8.596;2023-08-31T21:25:27;10.05;;;8.48;;
36303;SDS011;22335;49.800;8.596;2023-08-31T21:32:11;9.48;;;8.57;;
36303;SDS011;22335;49.800;8.596;2023-08-31T21:38:55;9.50;;;8.07;;
36303;SDS011;22335;49.800;8.596;2023-08-31T21:45:40;8.73;;;7.45;;
36303;SDS011;22335;49.800;8.596;2023-08-31T21:52:23;9.30;;;8.02;;
36303;SDS011;22335;49.800;8.596;2023-08-31T21:59:08;11.27;;;8.88;;
36303;SDS011;22335;49.800;8.596;2023-08-31T22:05:52;9.70;;;8.90;;
36303;SDS011;22335;49.800;8.596;2023-08-31T22:12:39;7.93;;;7.18;;
36303;SDS011;22335;49.800;8.596;2023-08-31T22:19:24;11.38;;;8.23;;
36303;SDS011;22335;49.800;8.596;2023-08-31T22:26:08;8.88;;;8.07;;
36303;SDS011;22335;49.800;8.596;2023-08-31T22:32:52;8.68;;;7.88;;
36303;SDS011;22335;49.800;8.596;2023-08-31T22:39:38;9.43;;;8.65;;
36303;SDS011;22335;49.800;8.596;2023-08-31T22:46:21;10.10;;;8.32;;
36303;SDS011;22335;49.800;8.596;2023-08-31T22:53:04;11.57;;;9.20;;
36303;SDS011;22335;49.800;8.596;2023-08-31T22:59:49;10.25;;;9.05;;
36303;SDS011;22335;49.800;8.596;2023-08-31T23:06:33;9.23;;;8.33;;
36303;SDS011;22335;49.800;8.596;2023-08-31T23:13:17;9.50;;;8.70;;
36303;SDS011;22335;49.800;8.596;2023-08-31T23:20:01;12.20;;;8.88;;
36303;SDS011;22335;49.800;8.596;2023-08-31T23:33:29;8.45;;;7.70;;
36303;SDS011;22335;49.800;8.596;2023-08-31T23:40:14;8.65;;;7.75;;
36303;SDS011;22335;49.800;8.596;2023-08-31T23:46:58;8.35;;;7.57;;
36303;SDS011;22335;49.800;8.596;2023-08-31T23:53:41;8.15;;;7.35;;
